sensor_id;sensor_type;location;lat;lon;timestamp;P1;durP1;ratioP1;P2;durP2;ratioP2
66327;SDS011;53133;52.862;6.602;2022-09-01T00:02:04;3.63;;;1.90;;
66327;SDS011;53133;52.862;6.602;2022-09-01T00:04:33;3.03;;;1.95;;
66327;SDS011;53133;52.862;6.602;2022-09-01T00:07:03;4.97;;;2.28;;
66327;SDS011;53133;52.862;6.602;2022-09-01T00:09:29;3.40;;;1.90;;
66327;SDS011;53133;52.862;6.602;2022-09-01T00:11:55;2.53;;;1.85;;
66327;SDS011;53133;52.862;6.602;2022-09-01T00:14:22;5.47;;;1.98;;
66327;SDS011;53133;52.862;6.602;2022-09-01T00:16:50;3.63;;;2.03;;
66327;SDS011;53133;52.862;6.602;2022-09-01T00:19:18;4.53;;;2.15;;
66327;SDS011;53133;52.862;6.602;2022-09-01T00:21:44;3.28;;;1.77;;
66327;SDS011;53133;52.862;6.602;2022-09-01T00:24:11;2.65;;;2.05;;
66327;SDS011;53133;52.862;6.602;2022-09-01T00:26:38;4.35;;;2.05;;
66327;SDS011;53133;52.862;6.602;2022-09-01T00:29:04;4.75;;;2.00;;
66327;SDS011;53133;52.862;6.602;2022-09-01T00:31:30;5.10;;;2.00;;
66327;SDS011;53133;52.862;6.602;2022-09-01T00:33:55;3.55;;;1.70;;
66327;SDS011;53133;52.862;6.602;2022-09-01T00:36:21;3.50;;;1.98;;
66327;SDS011;53133;52.862;6.602;2022-09-01T00:38:48;2.47;;;1.83;;
66327;SDS011;53133;52.862;6.602;2022-09-01T00:41:15;3.97;;;2.20;;
66327;SDS011;53133;52.862;6.602;2022-09-01T00:43:47;3.78;;;1.83;;
66327;SDS011;53133;52.862;6.602;2022-09-01T00:46:26;7.50;;;2.28;;
66327;SDS011;53133;52.862;6.602;2022-09-01T00:49:54;2.88;;;1.90;;
66327;SDS011;53133;52.862;6.602;2022-09-01T00:51:53;3.88;;;2.13;;
66327;SDS011;53133;52.862;6.602;2022-09-01T00:54:24;3.43;;;2.00;;
66327;SDS011;53133;52.862;6.602;2022-09-01T00:56:52;2.47;;;1.95;;
66327;SDS011;53133;52.862;6.602;2022-09-01T00:59:19;4.55;;;2.40;;
66327;SDS011;53133;52.862;6.602;2022-09-01T01:01:48;4.30;;;2.13;;
66327;SDS011;53133;52.862;6.602;2022-09-01T01:04:14;4.03;;;2.00;;
66327;SDS011;53133;52.862;6.602;2022-09-01T01:06:45;2.30;;;2.10;;
66327;SDS011;53133;52.862;6.602;2022-09-01T01:09:24;3.10;;;2.10;;
66327;SDS011;53133;52.862;6.602;2022-09-01T01:11:50;3.25;;;2.10;;
66327;SDS011;53133;52.862;6.602;2022-09-01T01:14:17;4.05;;;2.00;;
66327;SDS011;53133;52.862;6.602;2022-09-01T01:16:44;3.97;;;2.05;;
66327;SDS011;53133;52.862;6.602;2022-09-01T01:19:22;4.15;;;2.10;;
66327;SDS011;53133;52.862;6.602;2022-09-01T01:22:09;2.88;;;2.05;;
66327;SDS011;53133;52.862;6.602;2022-09-01T01:24:59;2.92;;;2.15;;
66327;SDS011;53133;52.862;6.602;2022-09-01T01:27:29;2.72;;;2.00;;
66327;SDS011;53133;52.862;6.602;2022-09-01T01:30:00;4.20;;;2.15;;
66327;SDS011;53133;52.862;6.602;2022-09-01T01:32:27;2.03;;;1.85;;
66327;SDS011;53133;52.862;6.602;2022-09-01T01:34:53;1.80;;;1.65;;
66327;SDS011;53133;52.862;6.602;2022-09-01T01:37:20;3.50;;;2.05;;
66327;SDS011;53133;52.862;6.602;2022-09-01T01:39:48;3.58;;;2.33;;
66327;SDS011;53133;52.862;6.602;2022-09-01T01:42:13;2.55;;;1.90;;
66327;SDS011;53133;52.862;6.602;2022-09-01T01:44:39;1.92;;;1.67;;
66327;SDS011;53133;52.862;6.602;2022-09-01T01:47:07;2.25;;;1.90;;
66327;SDS011;53133;52.862;6.602;2022-09-01T01:49:37;3.97;;;2.13;;
66327;SDS011;53133;52.862;6.602;2022-09-01T01:52:08;3.58;;;2.13;;
66327;SDS011;53133;52.862;6.602;2022-09-01T01:54:37;2.97;;;1.75;;
66327;SDS011;53133;52.862;6.602;2022-09-01T01:57:02;2.47;;;2.20;;
66327;SDS011;53133;52.862;6.602;2022-09-01T01:59:28;2.38;;;2.10;;
66327;SDS011;53133;52.862;6.602;2022-09-01T02:01:54;2.20;;;2.00;;
66327;SDS011;53133;52.862;6.602;2022-09-01T02:04:21;4.07;;;1.90;;
66327;SDS011;53133;52.862;6.602;2022-09-01T02:06:47;3.03;;;2.17;;
66327;SDS011;53133;52.862;6.602;2022-09-01T02:09:15;5.15;;;2.42;;
66327;SDS011;53133;52.862;6.602;2022-09-01T02:11:43;3.30;;;2.22;;
66327;SDS011;53133;52.862;6.602;2022-09-01T02:14:09;4.22;;;2.08;;
66327;SDS011;53133;52.862;6.602;2022-09-01T02:16:38;3.60;;;2.10;;
66327;SDS011;53133;52.862;6.602;2022-09-01T02:19:05;2.75;;;2.20;;
66327;SDS011;53133;52.862;6.602;2022-09-01T02:21:32;4.80;;;2.38;;
66327;SDS011;53133;52.862;6.602;2022-09-01T02:24:00;3.65;;;2.00;;
66327;SDS011;53133;52.862;6.602;2022-09-01T02:26:30;4.03;;;1.92;;
66327;SDS011;53133;52.862;6.602;2022-09-01T02:29:03;5.30;;;2.30;;
66327;SDS011;53133;52.862;6.602;2022-09-01T02:31:31;7.65;;;2.60;;
66327;SDS011;53133;52.862;6.602;2022-09-01T02:34:05;3.85;;;2.35;;
66327;SDS011;53133;52.862;6.602;2022-09-01T02:36:34;3.28;;;2.40;;
66327;SDS011;53133;52.862;6.602;2022-09-01T02:39:11;4.05;;;2.30;;
66327;SDS011;53133;52.862;6.602;2022-09-01T02:41:38;2.13;;;1.98;;
66327;SDS011;53133;52.862;6.602;2022-09-01T02:44:05;3.60;;;2.40;;
66327;SDS011;53133;52.862;6.602;2022-09-01T02:46:36;2.15;;;1.95;;
66327;SDS011;53133;52.862;6.602;2022-09-01T02:49:05;3.67;;;2.40;;
66327;SDS011;53133;52.862;6.602;2022-09-01T02:51:39;2.42;;;1.95;;
66327;SDS011;53133;52.862;6.602;2022-09-01T02:54:07;3.35;;;2.20;;
66327;SDS011;53133;52.862;6.602;2022-09-01T02:56:33;2.55;;;2.10;;
66327;SDS011;53133;52.862;6.602;2022-09-01T02:58:58;2.20;;;2.00;;
66327;SDS011;53133;52.862;6.602;2022-09-01T03:01:29;3.92;;;2.30;;
66327;SDS011;53133;52.862;6.602;2022-09-01T03:03:58;2.38;;;2.15;;
66327;SDS011;53133;52.862;6.602;2022-09-01T03:06:26;3.22;;;2.22;;
66327;SDS011;53133;52.862;6.602;2022-09-01T03:08:56;4.25;;;2.30;;
66327;SDS011;53133;52.862;6.602;2022-09-01T03:11:26;5.35;;;2.42;;
66327;SDS011;53133;52.862;6.602;2022-09-01T03:13:53;2.60;;;2.30;;
66327;SDS011;53133;52.862;6.602;2022-09-01T03:16:19;2.50;;;2.10;;
66327;SDS011;53133;52.862;6.602;2022-09-01T03:18:46;3.63;;;2.50;;
66327;SDS011;53133;52.862;6.602;2022-09-01T03:21:13;3.22;;;2.60;;
66327;SDS011;53133;52.862;6.602;2022-09-01T03:23:40;3.28;;;2.15;;
66327;SDS011;53133;52.862;6.602;2022-09-01T03:26:07;6.28;;;2.40;;
66327;SDS011;53133;52.862;6.602;2022-09-01T03:28:33;2.78;;;2.00;;
66327;SDS011;53133;52.862;6.602;2022-09-01T03:30:59;7.28;;;2.30;;
66327;SDS011;53133;52.862;6.602;2022-09-01T03:33:25;3.67;;;2.38;;
66327;SDS011;53133;52.862;6.602;2022-09-01T03:35:51;2.33;;;2.13;;
66327;SDS011;53133;52.862;6.602;2022-09-01T03:38:18;3.20;;;2.30;;
66327;SDS011;53133;52.862;6.602;2022-09-01T03:40:48;3.80;;;2.42;;
66327;SDS011;53133;52.862;6.602;2022-09-01T03:43:22;3.78;;;2.30;;
66327;SDS011;53133;52.862;6.602;2022-09-01T03:45:51;2.55;;;2.00;;
66327;SDS011;53133;52.862;6.602;2022-09-01T03:48:18;2.33;;;2.13;;
66327;SDS011;53133;52.862;6.602;2022-09-01T03:50:44;2.78;;;2.30;;
66327;SDS011;53133;52.862;6.602;2022-09-01T03:53:15;3.80;;;2.60;;
66327;SDS011;53133;52.862;6.602;2022-09-01T03:55:44;4.13;;;2.30;;
66327;SDS011;53133;52.862;6.602;2022-09-01T03:58:12;3.67;;;2.67;;
66327;SDS011;53133;52.862;6.602;2022-09-01T04:00:43;4.18;;;2.50;;
66327;SDS011;53133;52.862;6.602;2022-09-01T04:03:11;3.35;;;2.40;;
66327;SDS011;53133;52.862;6.602;2022-09-01T04:05:38;2.58;;;2.38;;
66327;SDS011;53133;52.862;6.602;2022-09-01T04:08:07;3.45;;;2.50;;
66327;SDS011;53133;52.862;6.602;2022-09-01T04:10:36;3.50;;;2.47;;
66327;SDS011;53133;52.862;6.602;2022-09-01T04:13:08;4.28;;;2.38;;
66327;SDS011;53133;52.862;6.602;2022-09-01T04:15:36;4.43;;;2.60;;
66327;SDS011;53133;52.862;6.602;2022-09-01T04:18:02;4.00;;;2.85;;
66327;SDS011;53133;52.862;6.602;2022-09-01T04:20:34;2.78;;;2.55;;
66327;SDS011;53133;52.862;6.602;2022-09-01T04:23:12;3.28;;;2.40;;
66327;SDS011;53133;52.862;6.602;2022-09-01T04:25:48;3.78;;;2.42;;
66327;SDS011;53133;52.862;6.602;2022-09-01T04:28:15;4.60;;;2.50;;
66327;SDS011;53133;52.862;6.602;2022-09-01T04:30:50;3.95;;;2.60;;
66327;SDS011;53133;52.862;6.602;2022-09-01T04:33:20;3.47;;;2.60;;
66327;SDS011;53133;52.862;6.602;2022-09-01T04:35:47;2.60;;;2.40;;
66327;SDS011;53133;52.862;6.602;2022-09-01T04:38:15;2.70;;;2.30;;
66327;SDS011;53133;52.862;6.602;2022-09-01T04:40:42;2.85;;;2.28;;
66327;SDS011;53133;52.862;6.602;2022-09-01T04:43:08;5.53;;;2.50;;
66327;SDS011;53133;52.862;6.602;2022-09-01T04:45:34;4.03;;;2.28;;
66327;SDS011;53133;52.862;6.602;2022-09-01T04:48:04;2.80;;;2.50;;
66327;SDS011;53133;52.862;6.602;2022-09-01T04:50:30;3.88;;;2.38;;
66327;SDS011;53133;52.862;6.602;2022-09-01T04:53:00;3.03;;;2.22;;
66327;SDS011;53133;52.862;6.602;2022-09-01T04:55:27;4.45;;;2.17;;
66327;SDS011;53133;52.862;6.602;2022-09-01T04:57:55;4.30;;;3.10;;
66327;SDS011;53133;52.862;6.602;2022-09-01T05:00:23;4.18;;;2.20;;
66327;SDS011;53133;52.862;6.602;2022-09-01T05:02:51;3.47;;;2.40;;
66327;SDS011;53133;52.862;6.602;2022-09-01T05:05:19;3.90;;;2.30;;
66327;SDS011;53133;52.862;6.602;2022-09-01T05:07:47;3.40;;;2.22;;
66327;SDS011;53133;52.862;6.602;2022-09-01T05:10:18;4.75;;;2.33;;
66327;SDS011;53133;52.862;6.602;2022-09-01T05:12:45;5.70;;;2.38;;
66327;SDS011;53133;52.862;6.602;2022-09-01T05:15:12;5.97;;;2.38;;
66327;SDS011;53133;52.862;6.602;2022-09-01T05:17:38;2.42;;;1.95;;
66327;SDS011;53133;52.862;6.602;2022-09-01T05:20:05;2.63;;;2.08;;
66327;SDS011;53133;52.862;6.602;2022-09-01T05:22:33;3.78;;;2.30;;
66327;SDS011;53133;52.862;6.602;2022-09-01T05:24:59;3.75;;;2.40;;
66327;SDS011;53133;52.862;6.602;2022-09-01T05:27:36;4.38;;;2.40;;
66327;SDS011;53133;52.862;6.602;2022-09-01T05:30:04;5.65;;;2.05;;
66327;SDS011;53133;52.862;6.602;2022-09-01T05:32:32;3.60;;;2.40;;
66327;SDS011;53133;52.862;6.602;2022-09-01T05:35:02;4.25;;;2.20;;
66327;SDS011;53133;52.862;6.602;2022-09-01T05:37:32;3.58;;;2.38;;
66327;SDS011;53133;52.862;6.602;2022-09-01T05:40:06;4.45;;;2.40;;
66327;SDS011;53133;52.862;6.602;2022-09-01T05:42:41;3.25;;;2.20;;
66327;SDS011;53133;52.862;6.602;2022-09-01T05:45:07;3.35;;;2.50;;
66327;SDS011;53133;52.862;6.602;2022-09-01T05:47:36;3.05;;;2.10;;
66327;SDS011;53133;52.862;6.602;2022-09-01T05:50:03;3.45;;;2.28;;
66327;SDS011;53133;52.862;6.602;2022-09-01T05:52:31;4.75;;;2.10;;
66327;SDS011;53133;52.862;6.602;2022-09-01T05:55:00;4.07;;;2.37;;
66327;SDS011;53133;52.862;6.602;2022-09-01T05:57:25;4.40;;;2.22;;
66327;SDS011;53133;52.862;6.602;2022-09-01T05:59:51;3.70;;;2.10;;
66327;SDS011;53133;52.862;6.602;2022-09-01T06:09:40;3.17;;;2.25;;
66327;SDS011;53133;52.862;6.602;2022-09-01T06:12:07;2.92;;;2.42;;
66327;SDS011;53133;52.862;6.602;2022-09-01T06:14:41;6.47;;;2.45;;
66327;SDS011;53133;52.862;6.602;2022-09-01T06:17:08;4.90;;;2.70;;
66327;SDS011;53133;52.862;6.602;2022-09-01T06:19:35;3.60;;;2.60;;
66327;SDS011;53133;52.862;6.602;2022-09-01T06:22:04;3.13;;;2.35;;
66327;SDS011;53133;52.862;6.602;2022-09-01T06:24:30;5.80;;;2.60;;
66327;SDS011;53133;52.862;6.602;2022-09-01T06:26:55;4.03;;;2.40;;
66327;SDS011;53133;52.862;6.602;2022-09-01T06:29:21;5.18;;;2.60;;
66327;SDS011;53133;52.862;6.602;2022-09-01T06:31:46;6.40;;;2.75;;
66327;SDS011;53133;52.862;6.602;2022-09-01T06:34:15;5.07;;;2.72;;
66327;SDS011;53133;52.862;6.602;2022-09-01T06:36:42;5.63;;;2.58;;
66327;SDS011;53133;52.862;6.602;2022-09-01T06:39:10;6.57;;;2.60;;
66327;SDS011;53133;52.862;6.602;2022-09-01T06:41:47;3.78;;;2.75;;
66327;SDS011;53133;52.862;6.602;2022-09-01T06:44:13;4.30;;;2.72;;
66327;SDS011;53133;52.862;6.602;2022-09-01T06:46:39;5.93;;;2.80;;
66327;SDS011;53133;52.862;6.602;2022-09-01T06:49:05;5.03;;;2.63;;
66327;SDS011;53133;52.862;6.602;2022-09-01T06:51:35;4.28;;;2.72;;
66327;SDS011;53133;52.862;6.602;2022-09-01T06:54:01;5.47;;;2.92;;
66327;SDS011;53133;52.862;6.602;2022-09-01T06:56:27;3.97;;;2.80;;
66327;SDS011;53133;52.862;6.602;2022-09-01T06:58:56;4.13;;;2.60;;
66327;SDS011;53133;52.862;6.602;2022-09-01T07:01:23;4.10;;;2.28;;
66327;SDS011;53133;52.862;6.602;2022-09-01T07:03:51;4.03;;;2.47;;
66327;SDS011;53133;52.862;6.602;2022-09-01T07:06:19;5.13;;;3.13;;
66327;SDS011;53133;52.862;6.602;2022-09-01T07:08:52;4.95;;;2.80;;
66327;SDS011;53133;52.862;6.602;2022-09-01T07:11:19;4.32;;;2.70;;
66327;SDS011;53133;52.862;6.602;2022-09-01T07:13:50;6.47;;;2.70;;
66327;SDS011;53133;52.862;6.602;2022-09-01T07:16:20;5.88;;;2.50;;
66327;SDS011;53133;52.862;6.602;2022-09-01T07:18:47;3.17;;;2.50;;
66327;SDS011;53133;52.862;6.602;2022-09-01T07:21:17;3.92;;;2.60;;
66327;SDS011;53133;52.862;6.602;2022-09-01T07:23:43;5.45;;;3.83;;
66327;SDS011;53133;52.862;6.602;2022-09-01T07:26:09;4.32;;;2.50;;
66327;SDS011;53133;52.862;6.602;2022-09-01T07:28:38;4.68;;;2.63;;
66327;SDS011;53133;52.862;6.602;2022-09-01T07:31:04;3.05;;;2.38;;
66327;SDS011;53133;52.862;6.602;2022-09-01T07:33:32;2.30;;;2.10;;
66327;SDS011;53133;52.862;6.602;2022-09-01T07:35:58;2.95;;;2.50;;
66327;SDS011;53133;52.862;6.602;2022-09-01T07:38:24;3.47;;;2.22;;
66327;SDS011;53133;52.862;6.602;2022-09-01T07:40:50;5.35;;;2.28;;
66327;SDS011;53133;52.862;6.602;2022-09-01T07:43:19;4.95;;;2.30;;
66327;SDS011;53133;52.862;6.602;2022-09-01T07:45:52;3.63;;;2.55;;
66327;SDS011;53133;52.862;6.602;2022-09-01T07:48:20;2.80;;;2.15;;
66327;SDS011;53133;52.862;6.602;2022-09-01T07:50:48;3.03;;;2.42;;
66327;SDS011;53133;52.862;6.602;2022-09-01T07:53:20;3.13;;;2.03;;
66327;SDS011;53133;52.862;6.602;2022-09-01T07:55:50;3.38;;;2.42;;
66327;SDS011;53133;52.862;6.602;2022-09-01T07:58:18;3.97;;;2.50;;
66327;SDS011;53133;52.862;6.602;2022-09-01T08:00:46;4.78;;;2.15;;
66327;SDS011;53133;52.862;6.602;2022-09-01T08:03:13;3.53;;;2.42;;
66327;SDS011;53133;52.862;6.602;2022-09-01T08:05:39;3.55;;;2.10;;
66327;SDS011;53133;52.862;6.602;2022-09-01T08:08:05;5.13;;;2.42;;
66327;SDS011;53133;52.862;6.602;2022-09-01T08:10:30;4.78;;;2.38;;
66327;SDS011;53133;52.862;6.602;2022-09-01T08:12:56;3.35;;;2.50;;
66327;SDS011;53133;52.862;6.602;2022-09-01T08:15:23;3.42;;;2.13;;
66327;SDS011;53133;52.862;6.602;2022-09-01T08:17:49;2.75;;;1.83;;
66327;SDS011;53133;52.862;6.602;2022-09-01T08:20:15;3.53;;;2.08;;
66327;SDS011;53133;52.862;6.602;2022-09-01T08:22:41;2.85;;;2.17;;
66327;SDS011;53133;52.862;6.602;2022-09-01T08:25:08;2.75;;;2.10;;
66327;SDS011;53133;52.862;6.602;2022-09-01T08:27:35;3.47;;;2.05;;
66327;SDS011;53133;52.862;6.602;2022-09-01T08:30:06;3.78;;;2.10;;
66327;SDS011;53133;52.862;6.602;2022-09-01T08:32:35;2.55;;;2.15;;
66327;SDS011;53133;52.862;6.602;2022-09-01T08:35:02;5.30;;;2.30;;
66327;SDS011;53133;52.862;6.602;2022-09-01T08:37:29;2.63;;;2.10;;
66327;SDS011;53133;52.862;6.602;2022-09-01T08:39:55;3.45;;;1.90;;
66327;SDS011;53133;52.862;6.602;2022-09-01T08:47:52;3.13;;;2.00;;
66327;SDS011;53133;52.862;6.602;2022-09-01T08:50:19;3.08;;;1.90;;
66327;SDS011;53133;52.862;6.602;2022-09-01T08:52:50;4.30;;;1.92;;
66327;SDS011;53133;52.862;6.602;2022-09-01T08:55:25;1.98;;;1.45;;
66327;SDS011;53133;52.862;6.602;2022-09-01T08:57:56;2.78;;;1.33;;
66327;SDS011;53133;52.862;6.602;2022-09-01T09:00:25;3.00;;;1.60;;
66327;SDS011;53133;52.862;6.602;2022-09-01T09:08:34;2.92;;;1.50;;
66327;SDS011;53133;52.862;6.602;2022-09-01T09:11:22;3.83;;;1.52;;
66327;SDS011;53133;52.862;6.602;2022-09-01T09:14:00;1.90;;;1.33;;
66327;SDS011;53133;52.862;6.602;2022-09-01T09:16:48;3.78;;;1.40;;
66327;SDS011;53133;52.862;6.602;2022-09-01T09:19:28;2.25;;;1.40;;
66327;SDS011;53133;52.862;6.602;2022-09-01T09:21:54;2.13;;;1.40;;
66327;SDS011;53133;52.862;6.602;2022-09-01T09:29:46;4.25;;;1.10;;
66327;SDS011;53133;52.862;6.602;2022-09-01T09:32:17;2.97;;;1.25;;
66327;SDS011;53133;52.862;6.602;2022-09-01T09:34:44;1.33;;;1.15;;
66327;SDS011;53133;52.862;6.602;2022-09-01T09:40:23;3.67;;;1.40;;
66327;SDS011;53133;52.862;6.602;2022-09-01T09:45:35;1.48;;;1.20;;
66327;SDS011;53133;52.862;6.602;2022-09-01T09:48:07;2.55;;;1.10;;
66327;SDS011;53133;52.862;6.602;2022-09-01T09:58:42;3.17;;;1.10;;
66327;SDS011;53133;52.862;6.602;2022-09-01T10:01:26;2.20;;;0.90;;
66327;SDS011;53133;52.862;6.602;2022-09-01T10:03:55;3.00;;;1.00;;
66327;SDS011;53133;52.862;6.602;2022-09-01T10:06:30;2.15;;;1.02;;
66327;SDS011;53133;52.862;6.602;2022-09-01T10:09:03;1.95;;;0.88;;
66327;SDS011;53133;52.862;6.602;2022-09-01T10:12:13;1.52;;;1.00;;
66327;SDS011;53133;52.862;6.602;2022-09-01T10:14:22;5.05;;;0.80;;
66327;SDS011;53133;52.862;6.602;2022-09-01T10:16:56;3.28;;;0.90;;
66327;SDS011;53133;52.862;6.602;2022-09-01T10:19:27;2.15;;;1.00;;
66327;SDS011;53133;52.862;6.602;2022-09-01T10:21:56;2.15;;;0.98;;
66327;SDS011;53133;52.862;6.602;2022-09-01T10:24:33;6.75;;;1.10;;
66327;SDS011;53133;52.862;6.602;2022-09-01T10:27:02;3.17;;;1.15;;
66327;SDS011;53133;52.862;6.602;2022-09-01T10:29:36;2.20;;;1.13;;
66327;SDS011;53133;52.862;6.602;2022-09-01T10:32:10;2.58;;;0.90;;
66327;SDS011;53133;52.862;6.602;2022-09-01T10:34:40;2.97;;;1.05;;
66327;SDS011;53133;52.862;6.602;2022-09-01T10:37:06;1.17;;;0.90;;
66327;SDS011;53133;52.862;6.602;2022-09-01T10:39:32;4.20;;;1.00;;
66327;SDS011;53133;52.862;6.602;2022-09-01T10:41:59;2.17;;;0.80;;
66327;SDS011;53133;52.862;6.602;2022-09-01T10:44:33;1.50;;;0.82;;
66327;SDS011;53133;52.862;6.602;2022-09-01T10:47:01;1.98;;;0.90;;
66327;SDS011;53133;52.862;6.602;2022-09-01T10:51:59;2.95;;;1.13;;
66327;SDS011;53133;52.862;6.602;2022-09-01T11:08:20;1.08;;;0.90;;
66327;SDS011;53133;52.862;6.602;2022-09-01T11:11:22;2.20;;;1.00;;
66327;SDS011;53133;52.862;6.602;2022-09-01T11:14:15;2.97;;;0.80;;
66327;SDS011;53133;52.862;6.602;2022-09-01T11:17:52;2.03;;;0.90;;
66327;SDS011;53133;52.862;6.602;2022-09-01T11:23:10;3.25;;;0.90;;
66327;SDS011;53133;52.862;6.602;2022-09-01T11:25:48;1.83;;;0.90;;
66327;SDS011;53133;52.862;6.602;2022-09-01T11:30:55;1.33;;;1.00;;
66327;SDS011;53133;52.862;6.602;2022-09-01T11:33:39;1.83;;;1.00;;
66327;SDS011;53133;52.862;6.602;2022-09-01T11:36:26;1.35;;;0.90;;
66327;SDS011;53133;52.862;6.602;2022-09-01T11:41:46;3.50;;;0.88;;
66327;SDS011;53133;52.862;6.602;2022-09-01T11:44:27;4.80;;;0.95;;
66327;SDS011;53133;52.862;6.602;2022-09-01T11:47:00;1.75;;;0.85;;
66327;SDS011;53133;52.862;6.602;2022-09-01T11:49:32;3.20;;;0.90;;
66327;SDS011;53133;52.862;6.602;2022-09-01T11:52:01;2.70;;;0.80;;
66327;SDS011;53133;52.862;6.602;2022-09-01T11:54:29;2.28;;;0.90;;
66327;SDS011;53133;52.862;6.602;2022-09-01T11:59:48;2.10;;;1.20;;
66327;SDS011;53133;52.862;6.602;2022-09-01T12:02:18;1.65;;;0.85;;
66327;SDS011;53133;52.862;6.602;2022-09-01T12:04:47;0.80;;;0.80;;
66327;SDS011;53133;52.862;6.602;2022-09-01T12:07:23;3.10;;;1.00;;
66327;SDS011;53133;52.862;6.602;2022-09-01T12:09:58;1.85;;;1.00;;
66327;SDS011;53133;52.862;6.602;2022-09-01T12:12:26;2.42;;;0.93;;
66327;SDS011;53133;52.862;6.602;2022-09-01T12:17:51;3.07;;;1.00;;
66327;SDS011;53133;52.862;6.602;2022-09-01T12:20:21;4.60;;;1.00;;
66327;SDS011;53133;52.862;6.602;2022-09-01T12:22:57;2.03;;;1.00;;
66327;SDS011;53133;52.862;6.602;2022-09-01T12:25:27;1.00;;;0.90;;
66327;SDS011;53133;52.862;6.602;2022-09-01T12:27:55;1.52;;;0.90;;
66327;SDS011;53133;52.862;6.602;2022-09-01T12:30:24;1.48;;;0.90;;
66327;SDS011;53133;52.862;6.602;2022-09-01T12:32:51;2.20;;;0.93;;
66327;SDS011;53133;52.862;6.602;2022-09-01T12:35:22;1.88;;;0.80;;
66327;SDS011;53133;52.862;6.602;2022-09-01T12:40:34;2.45;;;1.10;;
66327;SDS011;53133;52.862;6.602;2022-09-01T12:43:00;3.40;;;0.88;;
66327;SDS011;53133;52.862;6.602;2022-09-01T12:45:36;3.90;;;1.10;;
66327;SDS011;53133;52.862;6.602;2022-09-01T12:48:25;3.17;;;1.25;;
66327;SDS011;53133;52.862;6.602;2022-09-01T12:50:55;2.17;;;0.80;;
66327;SDS011;53133;52.862;6.602;2022-09-01T12:53:24;1.75;;;0.90;;
66327;SDS011;53133;52.862;6.602;2022-09-01T12:55:57;4.63;;;1.00;;
66327;SDS011;53133;52.862;6.602;2022-09-01T12:58:39;1.88;;;1.08;;
66327;SDS011;53133;52.862;6.602;2022-09-01T13:01:07;3.17;;;0.85;;
66327;SDS011;53133;52.862;6.602;2022-09-01T13:03:34;5.03;;;0.90;;
66327;SDS011;53133;52.862;6.602;2022-09-01T13:06:00;1.80;;;0.70;;
66327;SDS011;53133;52.862;6.602;2022-09-01T13:08:28;5.30;;;0.90;;
66327;SDS011;53133;52.862;6.602;2022-09-01T13:11:09;1.60;;;0.70;;
66327;SDS011;53133;52.862;6.602;2022-09-01T13:13:37;1.58;;;0.90;;
66327;SDS011;53133;52.862;6.602;2022-09-01T13:16:03;3.17;;;0.88;;
66327;SDS011;53133;52.862;6.602;2022-09-01T13:18:36;5.03;;;1.10;;
66327;SDS011;53133;52.862;6.602;2022-09-01T13:21:03;1.58;;;0.80;;
66327;SDS011;53133;52.862;6.602;2022-09-01T13:23:29;3.20;;;1.05;;
66327;SDS011;53133;52.862;6.602;2022-09-01T13:25:55;2.67;;;0.98;;
66327;SDS011;53133;52.862;6.602;2022-09-01T13:28:23;2.78;;;0.93;;
66327;SDS011;53133;52.862;6.602;2022-09-01T13:30:51;1.38;;;0.90;;
66327;SDS011;53133;52.862;6.602;2022-09-01T13:33:20;2.58;;;0.80;;
66327;SDS011;53133;52.862;6.602;2022-09-01T13:35:47;2.58;;;0.95;;
66327;SDS011;53133;52.862;6.602;2022-09-01T13:38:13;2.10;;;0.75;;
66327;SDS011;53133;52.862;6.602;2022-09-01T13:40:40;1.17;;;0.68;;
66327;SDS011;53133;52.862;6.602;2022-09-01T13:43:07;6.72;;;1.10;;
66327;SDS011;53133;52.862;6.602;2022-09-01T13:45:33;2.65;;;0.95;;
66327;SDS011;53133;52.862;6.602;2022-09-01T13:47:58;0.85;;;0.75;;
66327;SDS011;53133;52.862;6.602;2022-09-01T13:50:24;0.88;;;0.80;;
66327;SDS011;53133;52.862;6.602;2022-09-01T13:52:51;2.10;;;1.00;;
66327;SDS011;53133;52.862;6.602;2022-09-01T13:55:28;2.53;;;0.93;;
66327;SDS011;53133;52.862;6.602;2022-09-01T13:57:55;5.72;;;1.30;;
66327;SDS011;53133;52.862;6.602;2022-09-01T14:00:24;3.10;;;0.90;;
66327;SDS011;53133;52.862;6.602;2022-09-01T14:02:53;3.10;;;0.85;;
66327;SDS011;53133;52.862;6.602;2022-09-01T14:05:26;1.27;;;0.80;;
66327;SDS011;53133;52.862;6.602;2022-09-01T14:07:53;0.80;;;0.80;;
66327;SDS011;53133;52.862;6.602;2022-09-01T14:10:20;1.27;;;0.85;;
66327;SDS011;53133;52.862;6.602;2022-09-01T14:12:47;1.60;;;0.75;;
66327;SDS011;53133;52.862;6.602;2022-09-01T14:15:14;2.20;;;1.23;;
66327;SDS011;53133;52.862;6.602;2022-09-01T14:17:41;1.45;;;0.82;;
66327;SDS011;53133;52.862;6.602;2022-09-01T14:20:08;2.47;;;1.00;;
66327;SDS011;53133;52.862;6.602;2022-09-01T14:22:37;2.15;;;0.70;;
66327;SDS011;53133;52.862;6.602;2022-09-01T14:25:04;0.85;;;0.80;;
66327;SDS011;53133;52.862;6.602;2022-09-01T14:27:31;2.15;;;0.90;;
66327;SDS011;53133;52.862;6.602;2022-09-01T14:29:56;3.10;;;0.70;;
66327;SDS011;53133;52.862;6.602;2022-09-01T14:32:22;3.22;;;0.82;;
66327;SDS011;53133;52.862;6.602;2022-09-01T14:34:50;2.15;;;0.90;;
66327;SDS011;53133;52.862;6.602;2022-09-01T14:37:17;2.72;;;0.82;;
66327;SDS011;53133;52.862;6.602;2022-09-01T14:39:47;3.13;;;0.70;;
66327;SDS011;53133;52.862;6.602;2022-09-01T14:42:14;3.17;;;0.80;;
66327;SDS011;53133;52.862;6.602;2022-09-01T14:44:40;2.42;;;0.98;;
66327;SDS011;53133;52.862;6.602;2022-09-01T14:47:07;1.98;;;0.88;;
66327;SDS011;53133;52.862;6.602;2022-09-01T14:49:33;1.95;;;0.90;;
66327;SDS011;53133;52.862;6.602;2022-09-01T14:52:02;1.67;;;0.80;;
66327;SDS011;53133;52.862;6.602;2022-09-01T14:54:32;3.72;;;0.90;;
66327;SDS011;53133;52.862;6.602;2022-09-01T14:56:59;5.25;;;1.00;;
66327;SDS011;53133;52.862;6.602;2022-09-01T14:59:26;2.75;;;0.80;;
66327;SDS011;53133;52.862;6.602;2022-09-01T15:01:51;2.65;;;0.93;;
66327;SDS011;53133;52.862;6.602;2022-09-01T15:04:17;3.03;;;0.98;;
66327;SDS011;53133;52.862;6.602;2022-09-01T15:06:43;1.17;;;0.73;;
66327;SDS011;53133;52.862;6.602;2022-09-01T15:09:08;2.10;;;0.80;;
66327;SDS011;53133;52.862;6.602;2022-09-01T15:11:34;2.35;;;0.80;;
66327;SDS011;53133;52.862;6.602;2022-09-01T15:14:00;1.55;;;0.70;;
66327;SDS011;53133;52.862;6.602;2022-09-01T15:16:25;2.88;;;0.80;;
66327;SDS011;53133;52.862;6.602;2022-09-01T15:18:52;2.70;;;0.88;;
66327;SDS011;53133;52.862;6.602;2022-09-01T15:21:28;1.40;;;0.90;;
66327;SDS011;53133;52.862;6.602;2022-09-01T15:23:57;4.40;;;0.95;;
66327;SDS011;53133;52.862;6.602;2022-09-01T15:26:24;1.92;;;0.82;;
66327;SDS011;53133;52.862;6.602;2022-09-01T15:28:51;1.58;;;0.85;;
66327;SDS011;53133;52.862;6.602;2022-09-01T15:31:18;2.35;;;1.02;;
66327;SDS011;53133;52.862;6.602;2022-09-01T15:33:45;1.40;;;1.10;;
66327;SDS011;53133;52.862;6.602;2022-09-01T15:36:16;2.83;;;1.30;;
66327;SDS011;53133;52.862;6.602;2022-09-01T15:38:43;3.20;;;1.35;;
66327;SDS011;53133;52.862;6.602;2022-09-01T15:41:14;4.03;;;1.00;;
66327;SDS011;53133;52.862;6.602;2022-09-01T15:43:44;2.10;;;0.93;;
66327;SDS011;53133;52.862;6.602;2022-09-01T15:46:10;1.25;;;0.77;;
66327;SDS011;53133;52.862;6.602;2022-09-01T15:48:36;2.30;;;0.80;;
66327;SDS011;53133;52.862;6.602;2022-09-01T15:53:46;3.20;;;2.40;;
66327;SDS011;53133;52.862;6.602;2022-09-01T15:56:15;8.68;;;7.82;;
66327;SDS011;53133;52.862;6.602;2022-09-01T15:58:48;3.20;;;2.95;;
66327;SDS011;53133;52.862;6.602;2022-09-01T16:01:14;5.53;;;5.13;;
66327;SDS011;53133;52.862;6.602;2022-09-01T16:03:41;4.05;;;3.58;;
66327;SDS011;53133;52.862;6.602;2022-09-01T16:06:06;2.83;;;1.67;;
66327;SDS011;53133;52.862;6.602;2022-09-01T16:08:33;3.60;;;3.30;;
66327;SDS011;53133;52.862;6.602;2022-09-01T16:10:59;1.55;;;1.30;;
66327;SDS011;53133;52.862;6.602;2022-09-01T16:13:24;1.42;;;0.80;;
66327;SDS011;53133;52.862;6.602;2022-09-01T16:15:56;2.15;;;0.98;;